Time;durP1;ratioP1;P1;durP2;ratioP2;P2;SDS_P1;SDS_P2;PMS_P1;PMS_P2;Temp;Humidity;BMP_temperature;BMP_pressure;BME280_temperature;BME280_humidity;BME280_pressure;Samples;Min_cycle;Max_cycle;Signal;HPM_P1;HPM_P2
2023/02/05 00:00:50;;;;;;;18.25;9.55;;;;;;;1.88;46.53;97377.63;5075124;28;20262;-73
2023/02/05 00:03:16;;;;;;;10.38;5.75;;;;;;;1.95;46.09;97378.13;5070193;28;20302;-74
2023/02/05 00:05:41;;;;;;;13.52;5.72;;;;;;;2.02;45.62;97384.78;5071242;28;20536;-75
2023/02/05 00:08:07;;;;;;;11.82;5.93;;;;;;;2.07;45.44;97376.63;5075913;28;20125;-73
2023/02/05 00:10:32;;;;;;;9.57;5.30;;;;;;;2.12;45.90;97369.38;5055563;28;20056;-75
2023/02/05 00:12:58;;;;;;;13.48;6.43;;;;;;;2.11;45.44;97363.25;5072860;28;20452;-73
2023/02/05 00:15:23;;;;;;;11.65;5.72;;;;;;;2.20;45.14;97367.19;5072131;28;20046;-75
2023/02/05 00:17:48;;;;;;;13.10;5.70;;;;;;;2.17;44.88;97361.25;5071295;28;20076;-73
2023/02/05 00:20:14;;;;;;;13.15;6.13;;;;;;;2.22;44.76;97356.59;5069951;28;20445;-74
2023/02/05 00:22:39;;;;;;;13.15;6.35;;;;;;;2.27;44.73;97354.56;5068699;28;20583;-74
2023/02/05 00:25:05;;;;;;;13.20;5.75;;;;;;;2.25;45.16;97354.63;5074672;28;20081;-73
2023/02/05 00:27:31;;;;;;;13.70;5.80;;;;;;;2.30;44.94;97351.75;5073102;28;20061;-74
2023/02/05 00:29:57;;;;;;;11.07;5.45;;;;;;;2.22;44.55;97346.06;5057988;28;20052;-73
2023/02/05 00:32:22;;;;;;;15.68;5.35;;;;;;;2.18;44.04;97344.53;5069562;28;20092;-75
2023/02/05 00:34:48;;;;;;;12.85;5.55;;;;;;;2.17;44.37;97341.06;5068825;28;20053;-74
2023/02/05 00:37:13;;;;;;;11.80;5.47;;;;;;;2.10;44.21;97340.53;5071637;28;20447;-76
2023/02/05 00:39:39;;;;;;;10.88;5.68;;;;;;;2.07;43.99;97332.81;5072261;28;20075;-73
2023/02/05 00:42:04;;;;;;;15.52;5.80;;;;;;;2.16;44.90;97320.97;5069400;28;20048;-73
2023/02/05 00:44:29;;;;;;;12.75;5.43;;;;;;;2.36;45.16;97314.63;5077021;28;20122;-74
2023/02/05 00:46:55;;;;;;;11.50;5.22;;;;;;;2.44;44.75;97314.19;5064614;28;20048;-74
2023/02/05 00:49:20;;;;;;;13.15;6.38;;;;;;;2.47;44.94;97306.16;5070841;28;20312;-75
2023/02/05 00:51:46;;;;;;;13.15;6.30;;;;;;;2.47;44.32;97316.66;5068399;28;20561;-72
2023/02/05 00:54:11;;;;;;;14.27;6.75;;;;;;;2.46;44.40;97306.22;5069965;28;20052;-74
2023/02/05 00:56:36;;;;;;;14.20;7.15;;;;;;;2.44;44.45;97297.56;5068141;28;20147;-76
2023/02/05 00:59:02;;;;;;;13.27;6.78;;;;;;;2.48;45.23;97299.09;5067199;28;20046;-74
2023/02/05 01:01:27;;;;;;;13.40;6.32;;;;;;;2.50;44.89;97299.88;5068849;28;20071;-75
2023/02/05 01:03:53;;;;;;;16.42;7.68;;;;;;;2.53;45.47;97297.91;5071590;28;20516;-74
2023/02/05 01:06:19;;;;;;;14.30;7.55;;;;;;;2.50;44.40;97305.97;5064742;28;20038;-73
2023/02/05 01:08:45;;;;;;;14.13;7.05;;;;;;;2.48;44.91;97294.69;5070085;28;20557;-74
2023/02/05 01:11:10;;;;;;;18.27;6.50;;;;;;;2.60;44.99;97287.06;5064675;28;20060;-73
2023/02/05 01:13:36;;;;;;;12.40;6.18;;;;;;;2.64;44.46;97297.31;5063887;28;20067;-73
2023/02/05 01:16:02;;;;;;;10.43;5.38;;;;;;;2.63;45.63;97290.34;5071723;28;20074;-74
2023/02/05 01:18:28;;;;;;;11.18;4.60;;;;;;;2.73;44.78;97287.22;5063116;28;20261;-73
2023/02/05 01:20:53;;;;;;;12.38;4.90;;;;;;;2.82;45.11;97291.09;5066004;28;20080;-75
2023/02/05 01:23:18;;;;;;;9.65;3.55;;;;;;;2.83;45.13;97285.75;5061635;28;20541;-74
2023/02/05 01:25:44;;;;;;;7.95;3.65;;;;;;;2.85;45.52;97278.63;5066240;28;20071;-73
2023/02/05 01:28:10;;;;;;;11.93;3.92;;;;;;;2.90;45.45;97279.19;5068127;28;20361;-73
2023/02/05 01:30:35;;;;;;;8.38;3.25;;;;;;;2.93;45.25;97265.03;5062373;28;20189;-74
2023/02/05 01:33:01;;;;;;;9.75;3.50;;;;;;;3.00;44.56;97271.59;5064260;28;20554;-73
2023/02/05 01:35:26;;;;;;;6.65;2.85;;;;;;;3.02;45.51;97269.75;5066660;28;20260;-75
2023/02/05 01:37:52;;;;;;;9.60;2.83;;;;;;;3.15;45.13;97264.63;5064990;28;20562;-72
2023/02/05 01:40:18;;;;;;;8.32;3.25;;;;;;;3.19;45.03;97262.63;5069090;28;20082;-75
2023/02/05 01:42:43;;;;;;;8.13;2.67;;;;;;;3.20;45.00;97253.78;5062931;28;20053;-73
2023/02/05 01:45:20;;;;;;;9.38;3.42;;;;;;;3.06;44.87;97253.78;5071883;28;20502;-75
2023/02/05 01:47:56;;;;;;;11.10;3.33;;;;;;;3.13;45.56;97255.13;5064696;28;20492;-73
2023/02/05 01:50:39;;;;;;;23.27;11.70;;;;;;;2.96;45.18;97250.84;5060326;28;20053;-72
2023/02/05 01:53:07;;;;;;;91.47;59.70;;;;;;;2.81;49.41;97245.53;5063399;28;20247;-73
2023/02/05 01:55:33;;;;;;;103.15;71.43;;;;;;;2.71;52.65;97249.63;5059159;28;20034;-72
2023/02/05 01:57:58;;;;;;;84.05;53.85;;;;;;;2.81;52.64;97247.28;5060797;28;20053;-73
2023/02/05 02:00:24;;;;;;;77.05;51.67;;;;;;;2.85;53.10;97236.53;5065995;28;20072;-73
2023/02/05 02:02:50;;;;;;;104.15;71.88;;;;;;;2.95;53.22;97243.88;5063077;28;20045;-73
2023/02/05 02:05:18;;;;;;;100.63;67.75;;;;;;;3.00;53.39;97242.66;5065510;28;20103;-73
2023/02/05 02:07:43;;;;;;;94.43;63.08;;;;;;;3.11;52.89;97243.81;5067409;28;20270;-73
2023/02/05 02:10:09;;;;;;;95.65;60.35;;;;;;;3.19;52.45;97249.47;5058784;28;20400;-73
2023/02/05 02:12:36;;;;;;;90.00;60.35;;;;;;;3.21;52.50;97239.72;5063677;28;20532;-73
2023/02/05 02:15:04;;;;;;;86.75;58.28;;;;;;;3.28;52.04;97220.00;5064200;28;20511;-73
2023/02/05 02:17:30;;;;;;;89.80;62.73;;;;;;;3.37;52.57;97215.09;5061136;28;20142;-73
2023/02/05 02:19:58;;;;;;;103.25;67.65;;;;;;;3.47;52.13;97203.06;5063184;28;20224;-73
2023/02/05 02:22:51;;;;;;;93.70;62.30;;;;;;;3.49;51.45;97208.25;5065829;28;20530;-73
2023/02/05 02:25:58;;;;;;;82.80;55.92;;;;;;;3.53;52.28;97207.13;5068764;28;20573;-73
2023/02/05 02:28:30;;;;;;;94.30;63.20;;;;;;;3.59;51.98;97212.03;5012172;28;20247;-73
2023/02/05 02:31:07;;;;;;;91.97;62.60;;;;;;;3.65;52.25;97227.47;4972247;28;20021;-73
2023/02/05 02:33:39;;;;;;;61.25;36.67;;;;;;;3.69;49.64;97222.84;5044357;28;20076;-73
2023/02/05 02:36:16;;;;;;;60.47;40.35;;;;;;;3.55;49.36;97208.72;5063280;28;20185;-73
2023/02/05 02:38:44;;;;;;;80.13;52.50;;;;;;;3.53;51.10;97210.63;5068466;28;20062;-73
2023/02/05 02:41:26;;;;;;;69.57;46.10;;;;;;;3.60;50.61;97215.50;5058640;28;20177;-72
2023/02/05 02:43:59;;;;;;;72.18;49.15;;;;;;;3.69;51.23;97204.41;5064984;28;20436;-73
2023/02/05 02:46:30;;;;;;;73.95;50.50;;;;;;;3.80;50.21;97201.09;5066559;28;20194;-72
2023/02/05 02:48:58;;;;;;;54.63;37.00;;;;;;;3.88;49.55;97198.00;5064440;28;20155;-73
2023/02/05 02:51:24;;;;;;;77.97;51.92;;;;;;;3.87;50.33;97197.13;5048433;28;20990;-73
2023/02/05 02:53:53;;;;;;;80.38;54.28;;;;;;;3.91;50.74;97195.16;5062816;28;20087;-73
2023/02/05 02:56:19;;;;;;;66.35;48.00;;;;;;;3.92;50.69;97200.31;5071176;28;20036;-74
2023/02/05 02:58:46;;;;;;;75.60;48.25;;;;;;;3.94;50.78;97201.06;5048341;28;20028;-73
2023/02/05 03:01:11;;;;;;;76.20;53.35;;;;;;;3.97;51.10;97199.16;5069869;28;20150;-73
2023/02/05 03:03:42;;;;;;;79.88;55.40;;;;;;;3.98;50.51;97191.16;5063600;28;20310;-72
2023/02/05 03:06:08;;;;;;;76.95;51.85;;;;;;;4.01;50.34;97200.69;5056035;28;20108;-73
2023/02/05 03:08:43;;;;;;;70.07;48.22;;;;;;;4.03;50.10;97186.47;5053352;28;20074;-73
2023/02/05 03:11:11;;;;;;;87.40;56.92;;;;;;;4.08;50.88;97188.78;5069964;28;20446;-73
2023/02/05 03:13:36;;;;;;;62.35;39.97;;;;;;;4.06;50.04;97202.06;5057896;28;20048;-73
2023/02/05 03:16:02;;;;;;;61.38;42.53;;;;;;;4.06;50.04;97203.88;5065113;28;20090;-73
2023/02/05 03:18:28;;;;;;;71.82;51.00;;;;;;;4.08;50.62;97199.34;5066610;28;20038;-73
2023/02/05 03:20:56;;;;;;;73.80;50.30;;;;;;;4.15;50.14;97205.91;5068505;28;20377;-73
2023/02/05 03:23:22;;;;;;;67.05;46.28;;;;;;;4.16;49.95;97204.13;5066543;28;20039;-73
2023/02/05 03:25:48;;;;;;;69.03;46.70;;;;;;;4.15;50.26;97205.91;5066057;28;20069;-73
2023/02/05 03:28:13;;;;;;;55.03;36.03;;;;;;;4.12;49.32;97215.81;5069722;28;20324;-73
2023/02/05 03:30:59;;;;;;;54.38;38.15;;;;;;;4.09;49.61;97216.88;5062013;28;20054;-73
2023/02/05 03:33:33;;;;;;;62.33;44.53;;;;;;;4.20;49.80;97213.53;5063783;28;20067;-72
2023/02/05 03:36:08;;;;;;;71.25;48.63;;;;;;;4.16;49.99;97212.91;5071476;28;20036;-73
2023/02/05 03:39:12;;;;;;;67.60;44.92;;;;;;;4.14;50.11;97209.50;5075042;28;20035;-73
2023/02/05 03:41:56;;;;;;;54.05;37.85;;;;;;;4.10;49.79;97208.00;5067670;28;20244;-73
2023/02/05 03:44:27;;;;;;;54.92;38.80;;;;;;;4.09;49.66;97208.97;5062937;28;20100;-73
2023/02/05 03:47:09;;;;;;;54.67;38.83;;;;;;;4.14;50.06;97208.63;5066610;28;20101;-73
2023/02/05 03:49:42;;;;;;;57.10;39.50;;;;;;;4.21;50.33;97201.22;5062523;28;20074;-73
2023/02/05 03:52:17;;;;;;;54.63;37.03;;;;;;;4.18;49.12;97205.72;5067652;28;20126;-74
2023/02/05 03:55:04;;;;;;;61.58;43.85;;;;;;;4.12;50.28;97203.47;5060199;28;20499;-73
2023/02/05 03:57:33;;;;;;;58.05;38.58;;;;;;;4.16;49.91;97199.72;5059294;28;20074;-74
2023/02/05 03:59:59;;;;;;;57.38;37.97;;;;;;;4.18;50.22;97199.59;5069883;28;20305;-73
2023/02/05 04:02:24;;;;;;;55.65;38.47;;;;;;;4.17;50.12;97184.72;5054802;28;20038;-73
2023/02/05 04:04:50;;;;;;;57.33;38.30;;;;;;;4.24;50.18;97182.53;5067341;28;20087;-73
2023/02/05 04:07:15;;;;;;;53.65;37.65;;;;;;;4.29;49.72;97191.84;5061807;28;20025;-74
2023/02/05 04:09:41;;;;;;;41.47;26.70;;;;;;;4.25;48.67;97189.53;5063954;28;20055;-73
2023/02/05 04:12:06;;;;;;;50.90;37.13;;;;;;;4.21;49.86;97180.13;5058106;28;20753;-74
2023/02/05 04:14:31;;;;;;;53.63;37.70;;;;;;;4.21;50.06;97169.56;5044889;28;20393;-73
2023/02/05 04:16:57;;;;;;;49.92;33.67;;;;;;;4.26;50.01;97164.84;5065344;28;20128;-73
2023/02/05 04:19:22;;;;;;;49.33;35.35;;;;;;;4.29;49.73;97170.75;5065930;28;20050;-73
2023/02/05 04:21:48;;;;;;;48.95;34.95;;;;;;;4.30;49.41;97156.63;5066141;28;20776;-73
2023/02/05 04:24:13;;;;;;;50.60;35.20;;;;;;;4.29;50.08;97151.47;5071803;28;20363;-74
2023/02/05 04:26:38;;;;;;;40.28;29.00;;;;;;;4.31;49.45;97152.19;5068476;28;20039;-73
2023/02/05 04:29:04;;;;;;;41.70;27.73;;;;;;;4.28;49.95;97162.94;5067178;28;20523;-73
2023/02/05 04:31:29;;;;;;;44.55;31.30;;;;;;;4.26;49.51;97170.13;5070441;28;20036;-74
2023/02/05 04:33:55;;;;;;;49.17;32.92;;;;;;;4.41;49.55;97173.53;5065588;28;20528;-73
2023/02/05 04:36:20;;;;;;;43.65;31.15;;;;;;;4.40;49.59;97167.44;5059412;28;20761;-73
2023/02/05 04:38:46;;;;;;;53.22;35.67;;;;;;;4.25;49.91;97173.69;5066369;28;20074;-73
2023/02/05 04:41:11;;;;;;;51.40;35.45;;;;;;;4.25;49.81;97171.06;5068449;28;20094;-73
2023/02/05 04:43:36;;;;;;;42.80;30.98;;;;;;;4.22;49.51;97181.81;5071435;28;20090;-72
2023/02/05 04:46:06;;;;;;;46.92;33.13;;;;;;;4.21;50.29;97170.41;5074744;28;20120;-73
2023/02/05 04:48:31;;;;;;;41.75;28.23;;;;;;;4.25;49.76;97168.44;5066065;28;20064;-73
2023/02/05 04:50:57;;;;;;;52.30;33.92;;;;;;;4.28;50.43;97174.34;5064255;28;20044;-73
2023/02/05 04:53:22;;;;;;;24.60;13.10;;;;;;;4.33;47.80;97181.94;5069755;28;20037;-73
2023/02/05 04:55:47;;;;;;;21.77;11.45;;;;;;;4.25;46.93;97187.72;5065678;28;20039;-73
2023/02/05 04:58:13;;;;;;;41.15;27.10;;;;;;;4.05;49.89;97184.56;5065595;28;20028;-73
2023/02/05 05:00:38;;;;;;;44.55;29.40;;;;;;;4.11;50.96;97179.88;5063092;28;20518;-73
2023/02/05 05:03:04;;;;;;;35.05;25.52;;;;;;;4.25;50.25;97189.53;5066946;28;20093;-73
2023/02/05 05:05:30;;;;;;;41.97;29.30;;;;;;;4.28;49.87;97178.75;5067795;28;20039;-73
2023/02/05 05:07:55;;;;;;;37.65;25.38;;;;;;;4.32;49.49;97185.53;5067198;28;20492;-73
2023/02/05 05:10:20;;;;;;;41.65;28.80;;;;;;;4.31;50.43;97178.56;5071469;28;20071;-73
2023/02/05 05:12:46;;;;;;;40.53;27.27;;;;;;;4.33;50.10;97179.31;5071365;28;20036;-73
2023/02/05 05:15:11;;;;;;;30.08;19.55;;;;;;;4.30;48.02;97190.06;5067171;28;20035;-73
2023/02/05 05:17:37;;;;;;;12.27;6.50;;;;;;;4.04;46.61;97188.16;5069781;28;20040;-73
2023/02/05 05:20:02;;;;;;;28.02;17.85;;;;;;;3.80;49.32;97195.81;5067040;28;20071;-73
2023/02/05 05:22:28;;;;;;;33.30;20.40;;;;;;;3.92;50.46;97186.31;5068219;28;20240;-73
2023/02/05 05:24:53;;;;;;;35.53;24.25;;;;;;;4.04;50.27;97184.66;5073621;28;20084;-73
2023/02/05 05:27:18;;;;;;;34.72;24.33;;;;;;;4.14;50.21;97188.41;5065533;28;20047;-73
2023/02/05 05:29:45;;;;;;;39.67;25.65;;;;;;;4.23;49.91;97189.63;5072253;28;20109;-73
2023/02/05 05:32:11;;;;;;;24.58;13.73;;;;;;;4.25;49.03;97184.25;5067006;28;20044;-73
2023/02/05 05:34:37;;;;;;;36.33;26.27;;;;;;;4.23;50.18;97191.41;5071913;28;20037;-73
2023/02/05 05:37:02;;;;;;;29.70;20.95;;;;;;;4.25;49.61;97184.25;5068542;28;20396;-73
2023/02/05 05:44:56;;;;;;;34.17;23.08;;;;;;;4.29;49.79;97178.66;5064880;28;20071;-73
2023/02/05 05:47:21;;;;;;;26.70;16.08;;;;;;;4.32;48.71;97177.63;5071743;28;20511;-73
2023/02/05 05:49:46;;;;;;;22.00;11.30;;;;;;;4.18;47.64;97179.34;5059568;28;20035;-72
2023/02/05 05:52:12;;;;;;;25.67;16.38;;;;;;;4.09;49.49;97168.56;5059277;28;20083;-73
2023/02/05 05:54:37;;;;;;;17.48;7.43;;;;;;;3.98;47.36;97167.44;5064780;28;20228;-73
2023/02/05 05:57:03;;;;;;;18.83;8.20;;;;;;;3.91;48.60;97164.38;5067828;28;20293;-73
2023/02/05 05:59:28;;;;;;;23.10;15.38;;;;;;;3.93;49.57;97162.50;5067312;28;20046;-73
2023/02/05 06:01:54;;;;;;;53.42;11.00;;;;;;;3.98;49.43;97156.09;5065612;28;20554;-73
2023/02/05 06:04:19;;;;;;;25.45;8.57;;;;;;;3.77;47.81;97145.94;5068848;28;20086;-73
2023/02/05 06:06:45;;;;;;;21.58;9.23;;;;;;;3.72;49.67;97141.00;5063942;28;20042;-73
2023/02/05 06:09:10;;;;;;;26.83;16.58;;;;;;;3.70;50.29;97136.75;5068422;28;20062;-73
2023/02/05 06:11:35;;;;;;;19.70;10.63;;;;;;;3.74;48.46;97133.00;5065156;28;20097;-73
2023/02/05 06:14:01;;;;;;;19.75;12.20;;;;;;;3.74;50.49;97141.72;5063049;28;20023;-73
2023/02/05 06:16:26;;;;;;;22.58;13.30;;;;;;;3.90;50.25;97125.78;5066757;28;20549;-73
2023/02/05 06:18:52;;;;;;;25.48;15.13;;;;;;;3.71;49.21;97141.91;5060951;28;20047;-72
2023/02/05 06:21:17;;;;;;;30.38;17.52;;;;;;;3.74;50.70;97136.44;5058169;28;20416;-73
2023/02/05 06:23:43;;;;;;;29.38;18.75;;;;;;;3.94;50.65;97123.78;5061064;28;20490;-73
2023/02/05 06:26:08;;;;;;;34.30;20.50;;;;;;;4.00;51.26;97130.47;5074764;28;20038;-72
2023/02/05 06:28:34;;;;;;;31.35;19.42;;;;;;;4.02;50.60;97136.50;5071996;28;20445;-72
2023/02/05 06:30:59;;;;;;;27.00;18.50;;;;;;;4.03;50.58;97139.03;5074367;28;20024;-72
2023/02/05 06:33:25;;;;;;;30.42;18.83;;;;;;;4.01;50.80;97127.72;5057817;28;20064;-73
2023/02/05 06:35:50;;;;;;;34.83;20.33;;;;;;;4.06;51.06;97133.53;5060115;28;20337;-72
2023/02/05 06:38:15;;;;;;;30.25;20.67;;;;;;;4.16;50.49;97130.31;5064668;28;20431;-73
2023/02/05 06:40:41;;;;;;;30.30;17.65;;;;;;;4.28;50.48;97131.28;5067097;28;20066;-72
2023/02/05 06:43:06;;;;;;;52.80;16.70;;;;;;;4.34;49.84;97146.72;5070294;28;20443;-73
2023/02/05 06:45:31;;;;;;;42.20;18.80;;;;;;;4.39;50.14;97143.78;5063723;28;20597;-73
2023/02/05 06:47:57;;;;;;;45.88;19.45;;;;;;;4.40;50.12;97156.03;5067361;28;20067;-73
2023/02/05 06:50:23;;;;;;;109.43;19.10;;;;;;;4.39;50.02;97147.25;5064883;28;20036;-72
2023/02/05 06:52:50;;;;;;;41.83;14.88;;;;;;;4.21;49.63;97151.13;5067879;28;20281;-73
2023/02/05 06:55:15;;;;;;;20.80;8.77;;;;;;;4.18;48.50;97153.00;5064589;28;20064;-72
2023/02/05 06:57:41;;;;;;;15.57;6.65;;;;;;;3.88;49.19;97166.38;5069492;28;20510;-73
2023/02/05 07:00:07;;;;;;;35.67;5.47;;;;;;;3.88;50.13;97158.47;5066830;28;20086;-73
2023/02/05 07:02:32;;;;;;;26.38;6.50;;;;;;;3.43;51.37;97157.63;5065234;28;20139;-73
2023/02/05 07:04:58;;;;;;;8.52;3.85;;;;;;;2.52;53.53;97167.38;5065334;28;20076;-72
2023/02/05 07:07:23;;;;;;;13.00;4.80;;;;;;;1.80;56.59;97162.63;5062687;28;20050;-73
2023/02/05 07:09:49;;;;;;;10.15;4.63;;;;;;;1.20;58.58;97164.88;5066742;28;20137;-72
2023/02/05 07:12:14;;;;;;;8.25;4.20;;;;;;;1.16;58.31;97159.91;5065205;28;20118;-72
2023/02/05 07:14:40;;;;;;;7.88;3.47;;;;;;;0.50;60.25;97152.69;5063993;28;20070;-72
2023/02/05 07:17:06;;;;;;;5.10;3.42;;;;;;;0.64;60.09;97156.38;5053883;28;20085;-73
2023/02/05 07:19:31;;;;;;;5.50;3.05;;;;;;;0.66;60.19;97155.41;5068162;28;20079;-72
2023/02/05 07:21:57;;;;;;;5.50;3.35;;;;;;;0.50;60.49;97149.22;5063991;28;20554;-72
2023/02/05 07:24:22;;;;;;;11.30;7.47;;;;;;;0.47;61.38;97155.47;5069489;28;20086;-73
2023/02/05 07:26:48;;;;;;;13.70;8.18;;;;;;;0.75;60.58;97138.34;5075349;28;20116;-73
2023/02/05 07:29:13;;;;;;;14.15;9.68;;;;;;;1.69;58.07;97131.72;5065958;28;20079;-72
2023/02/05 07:31:38;;;;;;;3.05;2.22;;;;;;;1.72;57.37;97130.69;5066243;28;20516;-73
2023/02/05 07:34:04;;;;;;;2.65;2.35;;;;;;;1.43;57.05;97128.69;5064116;28;20044;-72
2023/02/05 07:36:29;;;;;;;2.97;2.22;;;;;;;1.25;58.15;97130.53;5064050;28;20157;-73
2023/02/05 07:38:55;;;;;;;5.63;2.53;;;;;;;1.57;57.11;97124.53;5063844;28;20085;-72
2023/02/05 07:41:20;;;;;;;6.55;3.55;;;;;;;1.82;56.11;97124.00;5064106;28;20206;-72
2023/02/05 07:43:51;;;;;;;3.13;2.47;;;;;;;1.52;57.42;97132.59;5066831;28;20582;-73
2023/02/05 07:46:17;;;;;;;7.68;4.90;;;;;;;1.42;57.70;97128.78;5054026;28;20071;-73
2023/02/05 07:48:42;;;;;;;10.48;7.55;;;;;;;1.85;56.44;97121.22;5068099;28;20074;-73
2023/02/05 07:51:07;;;;;;;5.97;3.58;;;;;;;1.85;56.79;97128.25;5067130;28;20423;-74
2023/02/05 07:53:33;;;;;;;5.20;3.65;;;;;;;2.00;55.66;97124.75;5052993;28;20678;-72
2023/02/05 07:56:02;;;;;;;7.68;4.45;;;;;;;2.03;56.19;97131.59;5068377;28;20084;-73
2023/02/05 07:58:28;;;;;;;5.43;3.65;;;;;;;2.10;55.55;97122.44;5068949;28;20054;-73
2023/02/05 08:00:53;;;;;;;4.55;3.10;;;;;;;2.14;54.68;97123.09;5066578;28;20075;-73
2023/02/05 08:03:19;;;;;;;2.88;2.40;;;;;;;2.17;55.72;97120.31;5065202;28;20099;-73
2023/02/05 08:05:44;;;;;;;4.35;3.17;;;;;;;2.04;55.69;97120.16;5069912;28;20088;-73
2023/02/05 08:08:09;;;;;;;4.95;3.72;;;;;;;2.05;56.00;97113.13;5068032;28;20084;-72
2023/02/05 08:10:35;;;;;;;5.60;2.80;;;;;;;1.95;55.69;97124.19;5050569;28;20052;-73
2023/02/05 08:13:00;;;;;;;6.10;4.10;;;;;;;1.82;55.85;97124.00;5063099;28;20086;-74
2023/02/05 08:15:27;;;;;;;4.20;2.30;;;;;;;1.99;55.86;97127.47;5062326;28;20073;-73
2023/02/05 08:17:52;;;;;;;6.47;4.05;;;;;;;1.67;57.18;97124.84;5066640;28;20076;-72
2023/02/05 08:20:18;;;;;;;11.15;7.68;;;;;;;1.76;57.52;97113.84;5049412;28;20091;-73
2023/02/05 08:22:44;;;;;;;5.97;2.85;;;;;;;1.80;56.39;97117.97;5069998;28;20594;-72
2023/02/05 08:25:12;;;;;;;5.18;3.92;;;;;;;2.02;55.82;97111.53;5063324;28;20082;-73
2023/02/05 08:27:38;;;;;;;4.07;2.80;;;;;;;2.17;56.34;97109.78;5066438;28;20403;-72
2023/02/05 08:30:04;;;;;;;6.85;4.43;;;;;;;1.97;56.37;97108.28;5065648;28;20369;-72
2023/02/05 08:32:30;;;;;;;3.85;2.25;;;;;;;1.67;56.40;97116.97;5070785;28;20701;-72
2023/02/05 08:34:55;;;;;;;4.10;2.80;;;;;;;2.02;56.25;97103.66;5068137;28;20069;-72
2023/02/05 08:37:20;;;;;;;10.23;7.28;;;;;;;2.08;56.57;97103.28;5069677;28;20070;-73
2023/02/05 08:39:48;;;;;;;7.15;4.55;;;;;;;1.87;56.82;97095.69;5067557;28;20715;-73
2023/02/05 08:42:13;;;;;;;9.63;5.80;;;;;;;2.08;57.22;97100.66;5068833;28;20695;-72
2023/02/05 08:44:38;;;;;;;8.52;5.10;;;;;;;1.88;56.89;97092.13;5067026;28;20085;-72
2023/02/05 08:47:04;;;;;;;5.85;3.72;;;;;;;1.90;56.47;97085.97;5062463;28;20057;-72
2023/02/05 08:49:29;;;;;;;10.07;4.38;;;;;;;2.28;56.03;97096.03;5064530;28;20181;-73
2023/02/05 08:51:55;;;;;;;3.95;2.47;;;;;;;2.39;55.45;97093.63;5065865;28;20078;-72
2023/02/05 08:54:20;;;;;;;2.88;2.35;;;;;;;2.43;55.44;97098.72;5062147;28;20660;-73
2023/02/05 08:56:47;;;;;;;2.30;2.10;;;;;;;2.22;55.27;97101.66;5068047;28;20082;-73
2023/02/05 08:59:13;;;;;;;2.20;2.00;;;;;;;1.61;56.99;97097.16;5050038;28;20064;-72
2023/02/05 09:01:41;;;;;;;3.45;2.58;;;;;;;1.00;59.26;97100.38;5066980;28;20087;-72
2023/02/05 09:04:07;;;;;;;3.72;2.55;;;;;;;0.98;59.65;97094.34;5051177;28;20091;-72
2023/02/05 09:06:33;;;;;;;2.70;2.28;;;;;;;0.41;61.44;97085.88;5064573;28;20193;-73
2023/02/05 09:08:59;;;;;;;7.13;4.15;;;;;;;0.72;61.31;97080.84;5068483;28;20097;-72
2023/02/05 09:11:29;;;;;;;5.35;3.60;;;;;;;1.27;59.85;97075.34;5066380;28;20260;-73
2023/02/05 09:13:55;;;;;;;5.68;3.75;;;;;;;1.23;59.17;97070.25;5068970;28;20138;-73
2023/02/05 09:16:20;;;;;;;7.05;4.45;;;;;;;1.28;59.03;97067.41;5051342;28;20088;-73
2023/02/05 09:18:45;;;;;;;6.45;4.07;;;;;;;1.17;59.37;97065.38;5068385;28;20058;-73
2023/02/05 09:21:11;;;;;;;8.25;5.53;;;;;;;1.47;58.70;97069.03;5067252;28;20083;-72
2023/02/05 09:23:37;;;;;;;5.10;3.03;;;;;;;1.58;57.88;97063.19;5064485;28;20059;-72
2023/02/05 09:26:03;;;;;;;6.97;4.30;;;;;;;1.36;58.31;97057.31;5067664;28;20068;-73
2023/02/05 09:28:28;;;;;;;6.65;4.25;;;;;;;1.61;58.18;97048.09;5065389;28;20119;-73
2023/02/05 09:30:53;;;;;;;5.15;3.45;;;;;;;1.50;58.48;97051.31;5063507;28;20048;-73
2023/02/05 09:33:19;;;;;;;6.65;4.40;;;;;;;1.23;59.41;97048.44;5065516;28;20099;-72
2023/02/05 09:35:44;;;;;;;3.67;2.67;;;;;;;0.99;59.78;97051.47;5065536;28;20084;-73
2023/02/05 09:38:13;;;;;;;4.68;3.17;;;;;;;0.89;60.16;97058.13;5067684;28;20073;-72
2023/02/05 09:40:47;;;;;;;5.47;3.20;;;;;;;0.51;61.38;97060.03;5069063;28;20083;-73
2023/02/05 09:43:42;;;;;;;5.75;3.33;;;;;;;0.56;61.14;97058.03;5069359;28;20325;-73
2023/02/05 09:46:20;;;;;;;5.38;2.70;;;;;;;-0.36;63.86;97053.84;5068943;28;20098;-72
2023/02/05 09:49:07;;;;;;;3.60;2.80;;;;;;;-0.99;66.29;97058.44;5066623;28;20516;-73
2023/02/05 09:51:35;;;;;;;4.90;3.00;;;;;;;-0.52;65.50;97059.81;5063289;28;20060;-72
2023/02/05 09:54:21;;;;;;;4.07;2.65;;;;;;;-0.78;66.62;97054.03;5073499;28;20072;-72
2023/02/05 09:56:47;;;;;;;4.35;2.53;;;;;;;-0.51;66.27;97050.22;5062902;28;20588;-72
2023/02/05 09:59:18;;;;;;;3.95;2.50;;;;;;;-0.55;66.15;97049.50;5046469;28;20062;-72
2023/02/05 10:01:47;;;;;;;3.65;2.70;;;;;;;-0.16;65.37;97052.88;5067066;28;20178;-72
2023/02/05 10:04:12;;;;;;;2.92;2.25;;;;;;;-0.10;65.71;97054.38;5057638;28;20106;-73
2023/02/05 10:06:46;;;;;;;2.40;2.00;;;;;;;-0.26;65.05;97046.41;5070546;28;20097;-72
2023/02/05 10:09:42;;;;;;;2.38;2.17;;;;;;;-0.62;66.28;97043.69;5058537;28;20120;-72
2023/02/05 10:13:05;;;;;;;3.13;1.98;;;;;;;-0.52;66.20;97049.34;5063808;28;20080;-73
2023/02/05 10:15:37;;;;;;;2.35;1.90;;;;;;;-0.53;66.34;97039.81;5002470;28;20059;-73
2023/02/05 10:18:31;;;;;;;2.20;2.00;;;;;;;-0.30;66.42;97035.25;4999259;28;20086;-72
2023/02/05 10:21:10;;;;;;;2.00;1.90;;;;;;;-0.90;68.57;97039.78;5049146;28;20087;-72
2023/02/05 10:23:54;;;;;;;;;;;;;;;-0.92;69.28;97032.91;5069032;28;20056;-72
2023/02/05 10:26:19;;;;;;;2.58;2.33;;;;;;;-0.73;68.59;97030.28;5066802;28;19998;-72
2023/02/05 10:29:18;;;;;;;3.22;2.40;;;;;;;-0.62;68.62;97019.31;5065632;28;20096;-72
2023/02/05 10:32:21;;;;;;;6.15;4.18;;;;;;;-0.57;68.71;97022.56;5065017;28;20077;-72
2023/02/05 10:35:32;;;;;;;3.15;2.50;;;;;;;-1.04;70.85;97027.31;5071270;28;20056;-72
2023/02/05 10:37:57;;;;;;;6.47;3.80;;;;;;;-0.21;67.48;97011.22;5027875;28;20096;-73
2023/02/05 10:40:38;;;;;;;2.28;2.08;;;;;;;-0.16;67.70;97018.84;5067086;28;20582;-72
2023/02/05 10:43:17;;;;;;;2.30;2.10;;;;;;;-0.10;66.79;97015.09;5043736;28;20067;-73
2023/02/05 10:45:42;;;;;;;2.35;2.03;;;;;;;-0.79;69.18;97014.84;5058648;28;20087;-72
2023/02/05 10:48:49;;;;;;;2.85;2.38;;;;;;;-0.68;68.85;97017.81;5051656;28;20566;-72
2023/02/05 10:51:16;;;;;;;2.30;2.10;;;;;;;-0.87;70.41;97016.09;5044588;28;20749;-73
2023/02/05 10:53:42;;;;;;;3.13;2.50;;;;;;;-0.72;70.29;97018.88;5050651;28;20298;-72
2023/02/05 10:56:09;;;;;;;4.10;2.47;;;;;;;-0.61;69.76;97007.94;5070203;28;20357;-73
2023/02/05 10:58:50;;;;;;;3.35;2.70;;;;;;;-0.99;71.07;97011.38;5063927;28;20428;-72
2023/02/05 11:01:36;;;;;;;3.25;2.60;;;;;;;-0.93;71.19;97007.66;5066753;28;20607;-72
2023/02/05 11:04:12;;;;;;;4.07;2.63;;;;;;;-1.15;72.03;97017.31;5067246;28;20091;-73
2023/02/05 11:06:40;;;;;;;2.65;2.42;;;;;;;-0.89;71.67;97017.91;5056563;28;20057;-72
2023/02/05 11:09:30;;;;;;;2.67;2.40;;;;;;;-0.59;70.66;97012.16;5066557;28;20438;-72
2023/02/05 11:12:08;;;;;;;4.25;2.90;;;;;;;-0.63;70.98;97012.38;5056815;28;20080;-72
2023/02/05 11:14:37;;;;;;;3.72;2.60;;;;;;;-0.82;71.51;97015.84;5065172;28;20458;-72
2023/02/05 11:17:15;;;;;;;3.85;3.15;;;;;;;-1.17;72.07;97011.31;5071923;28;20545;-72
2023/02/05 11:19:40;;;;;;;3.72;2.55;;;;;;;-0.89;72.07;97011.81;5070913;28;20063;-72
2023/02/05 11:22:06;;;;;;;3.00;2.30;;;;;;;-0.82;71.80;97011.50;5071593;28;20522;-72
2023/02/05 11:24:38;;;;;;;3.78;3.00;;;;;;;-1.22;73.49;97024.59;5069072;28;20110;-72
2023/02/05 11:27:26;;;;;;;4.53;3.15;;;;;;;-1.41;73.51;97028.94;5061769;28;20074;-72
2023/02/05 11:29:52;;;;;;;4.70;3.35;;;;;;;-0.68;72.19;97014.38;5069812;28;20112;-72
2023/02/05 11:32:31;;;;;;;5.32;3.20;;;;;;;-1.27;71.88;97029.19;5070273;28;20127;-72
2023/02/05 11:35:25;;;;;;;5.90;2.60;;;;;;;-1.31;71.79;97027.63;5068182;28;20139;-72
2023/02/05 11:38:08;;;;;;;3.38;2.65;;;;;;;-1.44;73.04;97026.47;5068125;28;20123;-72
2023/02/05 11:40:34;;;;;;;3.90;2.70;;;;;;;-1.22;71.09;97029.81;5060433;28;20093;-72
2023/02/05 11:43:25;;;;;;;2.47;1.98;;;;;;;-1.25;71.72;97016.88;5068879;28;20181;-72
2023/02/05 11:45:51;;;;;;;4.50;2.50;;;;;;;-1.18;72.87;97025.31;5069905;28;20355;-72